Station Historical Data
Daily Summary for March 4, 2018 Units:  Metric    English   Both
« Previous Day
Next Day »
Daily Weekly Monthly Yearly Custom
  High: Low: Average:
Temperature: 1.6 °C -6.9 °C -2.6 °C
Dew Point: -6.9 °C -11.3 °C -8.6 °C
Humidity: 85% 39% 65%
Wind Speed: 16.1km/h 0km/h 4.8km/h
Wind Gust: 25.7km/h - -
Wind- - NW
Pressure: 1032.1 hPa 1027.7 hPa -
Precipitation: 0 mm    
Historical Graphs
 
 
Tabular Data for March 4, 2018
Time Temperature Dew Point Pressure Wind Wind Speed Wind Gust Humidity Rainfall Rate (Hourly)
00:04 -3.9 °C -6.9 °C 1030.7 hPa Calm   3.2 km/h 80% 0 mm
00:09 -4.1 °C -7 °C 1030.7 hPa Calm     80% 0 mm
00:14 -4.2 °C -6.9 °C 1030.7 hPa Calm     81% 0 mm
00:19 -4.2 °C -6.9 °C 1030.7 hPa Calm   3.2 km/h 81% 0 mm
00:24 -4.3 °C -7.1 °C 1030.7 hPa Calm     81% 0 mm
00:29 -4.4 °C -7.2 °C 1030.7 hPa Calm     81% 0 mm
00:34 -4.5 °C -7.3 °C 1030.7 hPa Calm     81% 0 mm
00:39 -4.7 °C -7.4 °C 1030.4 hPa Calm     81% 0 mm
00:44 -4.7 °C -7.3 °C 1030.4 hPa Calm     82% 0 mm
00:49 -4.7 °C -7.3 °C 1030.4 hPa Calm   3.2 km/h 82% 0 mm
00:54 -4.7 °C -7.3 °C 1030.4 hPa Calm     82% 0 mm
00:59 -4.9 °C -7.5 °C 1030.4 hPa Calm     82% 0 mm
01:05 -5.1 °C -7.7 °C 1030.4 hPa Calm     82% 0 mm
01:10 -5.4 °C -8 °C 1030.4 hPa Calm     82% 0 mm
01:15 -5.6 °C -8 °C 1030.4 hPa Calm     83% 0 mm
01:20 -5.8 °C -8.2 °C 1030.4 hPa Calm     83% 0 mm
01:25 -5.9 °C -8.4 °C 1030.4 hPa Calm     83% 0 mm
01:30 -6.1 °C -8.5 °C 1030.4 hPa Calm     83% 0 mm
01:35 -6.3 °C -8.7 °C 1030.4 hPa Calm     83% 0 mm
01:40 -6.4 °C -8.8 °C 1030.4 hPa Calm     83% 0 mm
01:45 -6.6 °C -8.8 °C 1030.4 hPa Calm     84% 0 mm
01:50 -6.5 °C -8.8 °C 1030.4 hPa Calm     84% 0 mm
01:55 -6.5 °C -8.8 °C 1030.4 hPa Calm     84% 0 mm
02:00 -6.4 °C -8.7 °C 1030.4 hPa Calm     84% 0 mm
02:05 -6.3 °C -8.4 °C 1030.4 hPa Calm   3.2 km/h 85% 0 mm
02:10 -6.4 °C -8.5 °C 1030.4 hPa Calm     85% 0 mm
02:15 -6.4 °C -8.6 °C 1030.4 hPa Calm     85% 0 mm
02:20 -6.4 °C -8.6 °C 1030.4 hPa Calm     85% 0 mm
02:25 -6.6 °C -8.8 °C 1030.4 hPa Calm     84% 0 mm
02:30 -6.6 °C -8.7 °C 1030.4 hPa Calm     85% 0 mm
02:35 -6.7 °C -8.8 °C 1030.4 hPa Calm     85% 0 mm
02:40 -6.9 °C -9 °C 1030.4 hPa Calm     85% 0 mm
02:45 -6.8 °C -8.9 °C 1030.4 hPa Calm     85% 0 mm
02:50 -6.7 °C -8.8 °C 1030.4 hPa Calm     85% 0 mm
02:55 -6.5 °C -8.6 °C 1030.4 hPa Calm     85% 0 mm
03:00 -6.4 °C -8.6 °C 1030.4 hPa Calm     85% 0 mm
03:05 -6.4 °C -8.7 °C 1030.4 hPa Calm     84% 0 mm
03:10 -6.6 °C -8.8 °C 1030.4 hPa Calm     84% 0 mm
03:15 -6.4 °C -8.7 °C 1030.4 hPa Calm     84% 0 mm
03:20 -6.4 °C -8.7 °C 1030.4 hPa Calm     84% 0 mm
03:25 -6.5 °C -8.8 °C 1030.4 hPa Calm     84% 0 mm
03:30 -6.6 °C -8.9 °C 1030.4 hPa Calm   3.2 km/h 84% 0 mm
03:35 -6.4 °C -8.7 °C 1030.4 hPa Calm   4.8 km/h 84% 0 mm
03:45 -6.2 °C -8.6 °C 1030.4 hPa Calm   3.2 km/h 83% 0 mm
03:50 -6.2 °C -8.6 °C 1030.7 hPa Calm     83% 0 mm
03:55 -6.3 °C -8.8 °C 1030.4 hPa Calm     82% 0 mm
04:00 -6.4 °C -9 °C 1030.4 hPa Calm     82% 0 mm
04:05 -6.7 °C -9.2 °C 1030.4 hPa Calm     82% 0 mm
04:15 -6.8 °C -9.4 °C 1030.4 hPa Calm     82% 0 mm
04:20 -6.8 °C -9.4 °C 1030.7 hPa Calm     82% 0 mm
04:25 -6.7 °C -9.3 °C 1030.7 hPa Calm     82% 0 mm
04:30 -6.5 °C -9.1 °C 1030.7 hPa Calm   3.2 km/h 82% 0 mm
04:35 -6.4 °C -9 °C 1030.7 hPa Calm   3.2 km/h 82% 0 mm
04:40 -6.3 °C -8.9 °C 1030.7 hPa Calm     82% 0 mm
04:45 -6.3 °C -9.1 °C 1030.7 hPa NW 3.2 km/h 3.2 km/h 81% 0 mm
04:50 -5.9 °C -8.5 °C 1030.7 hPa NNW 1.6 km/h 8 km/h 82% 0 mm
04:55 -5.6 °C -8.2 °C 1030.7 hPa NNW 3.2 km/h 9.7 km/h 82% 0 mm
05:00 -5.4 °C -8.2 °C 1030.7 hPa North 3.2 km/h 9.7 km/h 81% 0 mm
05:05 -5.3 °C -8.1 °C 1030.7 hPa NNE 1.6 km/h 8 km/h 81% 0 mm
05:10 -5.2 °C -8.1 °C 1030.7 hPa North 3.2 km/h 8 km/h 80% 0 mm
05:15 -5.2 °C -8.2 °C 1030.7 hPa NNW 3.2 km/h 11.3 km/h 79% 0 mm
05:20 -5 °C -8.1 °C 1030.7 hPa NNW 3.2 km/h 11.3 km/h 79% 0 mm
05:24 -5 °C -8.1 °C 1030.7 hPa NNW 1.6 km/h 4.8 km/h 79% 0 mm
05:30 -5 °C -8.2 °C 1031 hPa NNW 1.6 km/h 6.4 km/h 78% 0 mm
05:35 -4.9 °C -8.2 °C 1031 hPa North 4.8 km/h 6.4 km/h 78% 0 mm
05:40 -4.9 °C -8.2 °C 1031 hPa NNW 4.8 km/h 11.3 km/h 78% 0 mm
05:45 -4.9 °C -8.1 °C 1031 hPa North 4.8 km/h 8 km/h 78% 0 mm
05:50 -4.8 °C -8.1 °C 1031 hPa NNW 4.8 km/h 6.4 km/h 78% 0 mm
05:54 -4.9 °C -8.3 °C 1031.4 hPa NNW 3.2 km/h 6.4 km/h 77% 0 mm
06:00 -5 °C -8.4 °C 1031.4 hPa NNW 3.2 km/h 6.4 km/h 77% 0 mm
06:05 -5.1 °C -8.5 °C 1031.4 hPa NNW 3.2 km/h 6.4 km/h 77% 0 mm
06:10 -5.2 °C -8.6 °C 1031.4 hPa NNW 3.2 km/h 6.4 km/h 77% 0 mm
06:15 -5.3 °C -8.7 °C 1031.4 hPa NNW 3.2 km/h 6.4 km/h 77% 0 mm
06:20 -5.5 °C -8.9 °C 1031.4 hPa NNW 1.6 km/h 4.8 km/h 77% 0 mm
06:25 -5.7 °C -9.1 °C 1031.4 hPa Calm   6.4 km/h 77% 0 mm
06:29 -5.9 °C -9.1 °C 1031.4 hPa NNW 1.6 km/h 6.4 km/h 78% 0 mm
06:35 -6 °C -9.2 °C 1031.4 hPa NNW 1.6 km/h 4.8 km/h 78% 0 mm
06:39 -5.9 °C -9 °C 1031.7 hPa NNW 3.2 km/h 6.4 km/h 79% 0 mm
06:45 -5.8 °C -8.9 °C 1031.7 hPa NNW 3.2 km/h 8 km/h 79% 0 mm
06:49 -5.7 °C -8.7 °C 1031.7 hPa NNW 3.2 km/h 6.4 km/h 79% 0 mm
06:55 -5.6 °C -8.8 °C 1031.7 hPa Calm   8 km/h 78% 0 mm
07:00 -5.4 °C -8.6 °C 1031.7 hPa NNW 3.2 km/h 6.4 km/h 78% 0 mm
07:04 -5.2 °C -8.4 °C 1031.7 hPa NNW 3.2 km/h 6.4 km/h 78% 0 mm
07:10 -5.1 °C -8.5 °C 1031.7 hPa NNW 3.2 km/h 8 km/h 77% 0 mm
07:15 -4.8 °C -8.2 °C 1031.7 hPa NNW 4.8 km/h 11.3 km/h 77% 0 mm
07:20 -4.7 °C -8.3 °C 1031.7 hPa NNW 4.8 km/h 11.3 km/h 76% 0 mm
07:25 -4.6 °C -8.2 °C 1031.7 hPa NNW 4.8 km/h 11.3 km/h 76% 0 mm
07:30 -4.4 °C -8.2 °C 1031.7 hPa NNW 3.2 km/h 11.3 km/h 75% 0 mm
07:34 -4.3 °C -8.1 °C 1031.7 hPa NNW 3.2 km/h 11.3 km/h 75% 0 mm
07:39 -4.3 °C -8.2 °C 1032.1 hPa NNW 3.2 km/h 8 km/h 74% 0 mm
07:44 -4.1 °C -8.1 °C 1031.7 hPa NNW 4.8 km/h 8 km/h 74% 0 mm
07:49 -3.9 °C -7.9 °C 1031.7 hPa NNW 1.6 km/h 8 km/h 74% 0 mm
07:54 -3.9 °C -8 °C 1031.7 hPa NNW 1.6 km/h 8 km/h 73% 0 mm
07:59 -3.7 °C -7.8 °C 1031.7 hPa North 6.4 km/h 11.3 km/h 73% 0 mm
08:05 -3.5 °C -7.8 °C 1031.7 hPa NNW 11.3 km/h 12.9 km/h 72% 0 mm
08:09 -3.3 °C -7.6 °C 1031.7 hPa NNW 6.4 km/h 12.9 km/h 72% 0 mm
08:14 -3 °C -7.5 °C 1031.7 hPa NNW 6.4 km/h 14.5 km/h 71% 0 mm
08:20 -2.8 °C -7.6 °C 1031.7 hPa NNW 6.4 km/h 14.5 km/h 70% 0 mm
08:25 -2.7 °C -7.4 °C 1031.7 hPa NNW 4.8 km/h 11.3 km/h 70% 0 mm
08:30 -2.6 °C -7.5 °C 1031.7 hPa North 4.8 km/h 9.7 km/h 69% 0 mm
08:35 -2.4 °C -7.3 °C 1031.7 hPa North 6.4 km/h 9.7 km/h 69% 0 mm
08:40 -2.4 °C -7.5 °C 1031.7 hPa North 6.4 km/h 17.7 km/h 68% 0 mm
08:44 -2.4 °C -7.5 °C 1031.7 hPa North 8 km/h 20.9 km/h 68% 0 mm
08:49 -2.4 °C -7.5 °C 1031.7 hPa NNE 8 km/h 19.3 km/h 68% 0 mm
08:54 -2.3 °C -7.4 °C 1031.7 hPa North 6.4 km/h 14.5 km/h 68% 0 mm
08:59 -2.2 °C -7.5 °C 1031.7 hPa NNW 8 km/h 12.9 km/h 67% 0 mm
09:05 -2 °C -7.5 °C 1031.7 hPa NNW 4.8 km/h 20.9 km/h 66% 0 mm
09:10 -1.9 °C -7.7 °C 1031.7 hPa Calm   22.5 km/h 65% 0 mm
09:15 -2 °C -7.7 °C 1031.7 hPa NW 1.6 km/h 20.9 km/h 65% 0 mm
09:19 -1.9 °C -7.7 °C 1031.7 hPa NNW 8 km/h 20.9 km/h 65% 0 mm
09:24 -1.8 °C -7.6 °C 1031.7 hPa NNW 9.7 km/h 24.1 km/h 65% 0 mm
09:29 -1.8 °C -7.5 °C 1031.7 hPa North 8 km/h 24.1 km/h 65% 0 mm
09:35 -1.8 °C -7.7 °C 1031.7 hPa North 9.7 km/h 20.9 km/h 64% 0 mm
09:40 -1.8 °C -7.9 °C 1031.7 hPa North 11.3 km/h 20.9 km/h 63% 0 mm
09:44 -1.8 °C -7.7 °C 1031.7 hPa North 16.1 km/h 16.1 km/h 64% 0 mm
09:49 -1.8 °C -7.9 °C 1031.7 hPa North 4.8 km/h 17.7 km/h 63% 0 mm
09:54 -1.6 °C -7.7 °C 1031.7 hPa North 9.7 km/h 17.7 km/h 63% 0 mm
09:59 -1.5 °C -7.8 °C 1031.7 hPa North 9.7 km/h 17.7 km/h 62% 0 mm
10:04 -1.5 °C -7.8 °C 1031.7 hPa North 9.7 km/h 17.7 km/h 62% 0 mm
10:10 -1.4 °C -7.8 °C 1031.7 hPa NNW 11.3 km/h 17.7 km/h 62% 0 mm
10:15 -1.4 °C -7.7 °C 1031.7 hPa North 9.7 km/h 19.3 km/h 62% 0 mm
10:20 -1.3 °C -7.7 °C 1031.7 hPa North 9.7 km/h 19.3 km/h 62% 0 mm
10:25 -1.2 °C -7.7 °C 1031.7 hPa NNW 9.7 km/h 17.7 km/h 61% 0 mm
10:29 -1.2 °C -7.7 °C 1031.4 hPa North 8 km/h 19.3 km/h 61% 0 mm
10:34 -1.1 °C -7.6 °C 1031.4 hPa North 9.7 km/h 19.3 km/h 61% 0 mm
10:40 -0.9 °C -8.2 °C 1031.4 hPa NNW 8 km/h 20.9 km/h 58% 0.25 mm
10:44 -0.9 °C -8.6 °C 1031.4 hPa NNW 11.3 km/h 17.7 km/h 56% 0.25 mm
10:49 -0.7 °C -8.2 °C 1031.4 hPa WNW 6.4 km/h 16.1 km/h 57% 0.25 mm
10:54 -0.8 °C -8.2 °C 1031.4 hPa North 8 km/h 16.1 km/h 57% 0.25 mm
10:59 -0.5 °C -8 °C 1031.4 hPa NNW 16.1 km/h 20.9 km/h 57% 0.25 mm
11:04 -0.7 °C -8.6 °C 1031.4 hPa NNW 9.7 km/h 24.1 km/h 55% 0.25 mm
11:09 -0.6 °C -8.8 °C 1031 hPa NNW 9.7 km/h 24.1 km/h 54% 0.25 mm
11:14 -0.3 °C -8.2 °C 1031 hPa NNW 8 km/h 19.3 km/h 55% 0.25 mm
11:19 -0.2 °C -8.2 °C 1031 hPa NNW 8 km/h 16.1 km/h 55% 0.25 mm
11:25 -0.2 °C -8.7 °C 1031 hPa NW 8 km/h 17.7 km/h 53% 0.51 mm
11:30 -0.1 °C -8.3 °C 1031 hPa NW 6.4 km/h 20.9 km/h 54% 0.51 mm
11:35 0.2 °C -8.3 °C 1031 hPa WNW 8 km/h 12.9 km/h 53% 0.51 mm
11:39 0.2 °C -8.1 °C 1031 hPa NNW 8 km/h 16.1 km/h 54% 0.25 mm
11:44 0.3 °C -8.2 °C 1031 hPa NNW 14.5 km/h 14.5 km/h 53% 0.25 mm
11:49 0.3 °C -8.4 °C 1030.7 hPa NW 8 km/h 17.7 km/h 52% 0.25 mm
11:54 0.3 °C -8.4 °C 1030.7 hPa NW 8 km/h 17.7 km/h 52% 0.51 mm
11:59 0.6 °C -8.2 °C 1030.7 hPa North 11.3 km/h 20.9 km/h 52% 0.51 mm
12:04 0.3 °C -8.7 °C 1030.7 hPa NW 8 km/h 20.9 km/h 51% 0.51 mm
12:09 0.2 °C -8.7 °C 1030.7 hPa NW 3.2 km/h 19.3 km/h 51% 0.51 mm
12:14 0.4 °C -8.6 °C 1030.7 hPa NNW 8 km/h 19.3 km/h 51% 0.51 mm
12:19 0.6 °C -8.4 °C 1030.7 hPa NNW 8 km/h 17.7 km/h 51% 0.51 mm
12:24 0.6 °C -8.9 °C 1030.7 hPa NNW 8 km/h 17.7 km/h 49% 0.25 mm
12:29 0.3 °C -8.9 °C 1030.7 hPa NNW 9.7 km/h 25.7 km/h 50% 0.25 mm
12:35 0.1 °C -9.6 °C 1030.4 hPa NNW 11.3 km/h 25.7 km/h 48% 0.51 mm
12:40 0.4 °C -8.8 °C 1030.4 hPa NNW 9.7 km/h 20.9 km/h 50% 0.51 mm
12:45 0.7 °C -9.1 °C 1030.4 hPa WNW 8 km/h 20.9 km/h 48% 0.51 mm
12:49 0.7 °C -8.8 °C 1030.4 hPa NNW 3.2 km/h 17.7 km/h 49% 0.51 mm
12:54 0.7 °C -9.1 °C 1030.4 hPa North 11.3 km/h 17.7 km/h 48% 0.51 mm
12:59 0.7 °C -9.9 °C 1030 hPa NW 9.7 km/h 24.1 km/h 45% 0.51 mm
13:04 0.9 °C -9.1 °C 1030 hPa NW 3.2 km/h 19.3 km/h 47% 0.51 mm
13:09 0.8 °C -9.8 °C 1030 hPa NW 9.7 km/h 14.5 km/h 45% 0.51 mm
13:14 0.8 °C -9.2 °C 1030 hPa North 12.9 km/h 17.7 km/h 47% 0.51 mm
13:19 0.9 °C -8.9 °C 1030 hPa NNW 8 km/h 17.7 km/h 48% 0.51 mm
13:24 0.9 °C -8.9 °C 1030 hPa NNW 8 km/h 17.7 km/h 48% 0.76 mm
13:29 0.9 °C -9.4 °C 1030 hPa NNW 8 km/h 20.9 km/h 46% 0.76 mm
13:34 1 °C -9.6 °C 1030 hPa NNW 8 km/h 20.9 km/h 45% 0.51 mm
13:39 1.3 °C -9.4 °C 1029.7 hPa NNW 8 km/h 17.7 km/h 45% 0.51 mm
13:45 1.3 °C -9.4 °C 1029.7 hPa NW 8 km/h 20.9 km/h 45% 0.51 mm
13:50 1.6 °C -9.1 °C 1029.7 hPa NNW 8 km/h 20.9 km/h 45% 0.51 mm
13:54 1.6 °C -9.4 °C 1029.7 hPa NW 12.9 km/h 16.1 km/h 44% 0.25 mm
13:59 1.6 °C -10 °C 1029.7 hPa NNW 6.4 km/h 17.7 km/h 42% 0.51 mm
14:04 1.3 °C -10.2 °C 1029.7 hPa NNW 12.9 km/h 17.7 km/h 42% 0.51 mm
14:09 1.2 °C -11.3 °C 1029.7 hPa NNW 14.5 km/h 19.3 km/h 39% 0.51 mm
14:14 1.3 °C -10.9 °C 1029.3 hPa NW 4.8 km/h 16.1 km/h 40% 0.51 mm
14:19 1.2 °C -10.7 °C 1029.3 hPa NW 14.5 km/h 19.3 km/h 41% 0.51 mm
14:24 1.3 °C -10.6 °C 1029.3 hPa NNE 11.3 km/h 16.1 km/h 41% 0.25 mm
14:29 1.2 °C -10.3 °C 1029.3 hPa North 6.4 km/h 19.3 km/h 42% 0.25 mm
14:34 1.3 °C -11.2 °C 1029.3 hPa North 9.7 km/h 19.3 km/h 39% 0.25 mm
14:39 1.4 °C -10.2 °C 1029.3 hPa NNW 9.7 km/h 17.7 km/h 42% 0.25 mm
14:44 1.3 °C -9.1 °C 1029.3 hPa NNW 9.7 km/h 19.3 km/h 46% 0.25 mm
14:49 1.3 °C -9.1 °C 1029 hPa NW 9.7 km/h 20.9 km/h 46% 0.25 mm
14:54 1.6 °C -9.1 °C 1029 hPa North 3.2 km/h 14.5 km/h 45% 0.25 mm
14:59 1.5 °C -9.2 °C 1029 hPa North 6.4 km/h 16.1 km/h 45% 0 mm
15:04 1.6 °C -9.1 °C 1029 hPa West 8 km/h 16.1 km/h 45% 0 mm
15:10 1.5 °C -8.6 °C 1029 hPa WNW 9.7 km/h 20.9 km/h 47% 0 mm
15:14 1.6 °C -9.4 °C 1029 hPa NW 9.7 km/h 20.9 km/h 44% 0.25 mm
15:19 1.6 °C -8.5 °C 1029 hPa NW 14.5 km/h 19.3 km/h 47% 0.25 mm
15:24 1.6 °C -8.8 °C 1029 hPa NNW 6.4 km/h 16.1 km/h 46% 0.25 mm
15:30 1.5 °C -8.9 °C 1029 hPa NW 8 km/h 17.7 km/h 46% 0.25 mm
15:35 1.5 °C -9.2 °C 1029 hPa NW 8 km/h 17.7 km/h 45% 0.25 mm
15:40 1.6 °C -9.4 °C 1029 hPa NW 8 km/h 20.9 km/h 44% 0.25 mm
15:45 1.5 °C -9.4 °C 1029 hPa NNW 4.8 km/h 16.1 km/h 44% 0.25 mm
15:54 1.3 °C -9.7 °C 1029 hPa NNW 9.7 km/h 19.3 km/h 44% 0.25 mm
15:59 1.3 °C -9.4 °C 1029 hPa NW 4.8 km/h 17.7 km/h 45% 0.25 mm
16:04 1.3 °C -9.1 °C 1028.7 hPa North 8 km/h 16.1 km/h 46% 0.25 mm
16:10 1.3 °C -8.8 °C 1028.7 hPa NW 6.4 km/h 17.7 km/h 47% 0.25 mm
16:15 1.1 °C -9.2 °C 1028.7 hPa NNW 9.7 km/h 20.9 km/h 46% 0 mm
16:20 1 °C -9.6 °C 1028.7 hPa NNE 8 km/h 19.3 km/h 45% 0 mm
16:24 0.9 °C -9.7 °C 1028.7 hPa North 9.7 km/h 19.3 km/h 45% 0 mm
16:29 0.9 °C -9.7 °C 1028.7 hPa NNW 9.7 km/h 19.3 km/h 45% 0 mm
16:34 0.8 °C -9.8 °C 1028.7 hPa NNW 16.1 km/h 17.7 km/h 45% 0 mm
16:39 0.7 °C -9.6 °C 1028.7 hPa NNW 9.7 km/h 17.7 km/h 46% 0 mm
16:44 0.6 °C -9.8 °C 1028.7 hPa NNW 6.4 km/h 17.7 km/h 46% 0 mm
16:50 0.4 °C -9.6 °C 1028.7 hPa NE 8 km/h 14.5 km/h 47% 0 mm
16:54 0.3 °C -9.7 °C 1028.7 hPa NNW 8 km/h 22.5 km/h 47% 0 mm
16:59 0.2 °C -9.5 °C 1028.7 hPa NNW 8 km/h 22.5 km/h 48% 0 mm
17:04 0.2 °C -9.5 °C 1028.7 hPa NNW 12.9 km/h 16.1 km/h 48% 0 mm
17:09 0.1 °C -9.3 °C 1028.7 hPa North 4.8 km/h 19.3 km/h 49% 0 mm
17:14 0.1 °C -9.2 °C 1028.7 hPa North 8 km/h 20.9 km/h 50% 0 mm
17:19 -0.1 °C -9.5 °C 1028.7 hPa North 4.8 km/h 14.5 km/h 49% 0 mm
17:24 -0.2 °C -9.4 °C 1028.7 hPa NNW 4.8 km/h 11.3 km/h 50% 0 mm
17:29 -0.3 °C -9.5 °C 1028.7 hPa NNW 6.4 km/h 14.5 km/h 50% 0 mm
17:34 -0.5 °C -9.4 °C 1028.7 hPa North 8 km/h 14.5 km/h 51% 0 mm
17:39 -0.6 °C -9.5 °C 1028.7 hPa NNW 8 km/h 14.5 km/h 51% 0 mm
17:44 -0.6 °C -9.5 °C 1028.7 hPa NNW 6.4 km/h 14.5 km/h 51% 0 mm
17:49 -0.7 °C -9.6 °C 1028.7 hPa NNW 8 km/h 12.9 km/h 51% 0 mm
17:54 -0.8 °C -9.5 °C 1028.7 hPa NNW 3.2 km/h 14.5 km/h 52% 0 mm
17:59 -0.9 °C -9.3 °C 1029 hPa NNW 3.2 km/h 11.3 km/h 53% 0 mm
18:04 -1.1 °C -9.4 °C 1029 hPa NNW 4.8 km/h 11.3 km/h 53% 0 mm
18:09 -1.2 °C -9.6 °C 1029 hPa NNW 4.8 km/h 14.5 km/h 53% 0 mm
18:14 -1.2 °C -9.6 °C 1029 hPa North 4.8 km/h 9.7 km/h 53% 0 mm
18:19 -1.3 °C -9.4 °C 1028.7 hPa NNW 1.6 km/h 4.8 km/h 54% 0 mm
18:24 -1.5 °C -9.6 °C 1029 hPa NW 3.2 km/h 9.7 km/h 54% 0 mm
18:29 -1.5 °C -9.6 °C 1029 hPa NW 1.6 km/h 12.9 km/h 54% 0 mm
18:34 -1.6 °C -9.7 °C 1029 hPa NNW 4.8 km/h 12.9 km/h 54% 0 mm
18:39 -1.6 °C -9.7 °C 1028.7 hPa NNW 4.8 km/h 12.9 km/h 54% 0 mm
18:44 -1.8 °C -9.7 °C 1029 hPa NNW 3.2 km/h 12.9 km/h 55% 0 mm
18:49 -1.7 °C -9.6 °C 1029 hPa NW 3.2 km/h 8 km/h 55% 0 mm
18:54 -1.8 °C -9.7 °C 1028.7 hPa NW 3.2 km/h 9.7 km/h 55% 0 mm
18:59 -1.8 °C -9.7 °C 1029 hPa NNW 1.6 km/h 11.3 km/h 55% 0 mm
19:04 -2.1 °C -9.5 °C 1029 hPa NW 8 km/h 9.7 km/h 57% 0 mm
19:09 -2.2 °C -9.6 °C 1029 hPa NNW 1.6 km/h 9.7 km/h 57% 0 mm
19:14 -2.4 °C -9.6 °C 1029 hPa NW 3.2 km/h 9.7 km/h 58% 0 mm
19:19 -2.3 °C -9.3 °C 1029 hPa WNW 3.2 km/h 11.3 km/h 59% 0 mm
19:24 -2.2 °C -8.7 °C 1029 hPa NW 4.8 km/h 11.3 km/h 61% 0 mm
19:29 -2.1 °C -8.4 °C 1029 hPa NNW 4.8 km/h 11.3 km/h 62% 0 mm
19:34 -2.2 °C -8.3 °C 1029 hPa NW 6.4 km/h 11.3 km/h 63% 0 mm
19:39 -2.2 °C -8.1 °C 1029 hPa NNW 1.6 km/h 9.7 km/h 64% 0 mm
19:44 -2.3 °C -8 °C 1029 hPa NW 4.8 km/h 12.9 km/h 65% 0 mm
19:49 -2.3 °C -8 °C 1029 hPa NW 4.8 km/h 12.9 km/h 65% 0 mm
19:54 -2.3 °C -7.8 °C 1029 hPa NW 4.8 km/h 12.9 km/h 66% 0 mm
19:59 -2.4 °C -7.9 °C 1029 hPa NW 6.4 km/h 12.9 km/h 66% 0 mm
20:04 -2.4 °C -7.9 °C 1029 hPa NNW 1.6 km/h 16.1 km/h 66% 0 mm
20:09 -2.4 °C -7.9 °C 1029 hPa NNW 3.2 km/h 11.3 km/h 66% 0 mm
20:14 -2.6 °C -8.1 °C 1029 hPa NNW 4.8 km/h 11.3 km/h 66% 0 mm
20:19 -2.6 °C -8.1 °C 1029 hPa NNW 4.8 km/h 12.9 km/h 66% 0 mm
20:24 -2.6 °C -8.1 °C 1029 hPa NNW 4.8 km/h 12.9 km/h 66% 0 mm
20:29 -2.6 °C -8.3 °C 1029 hPa North 11.3 km/h 14.5 km/h 65% 0 mm
20:34 -2.6 °C -8.3 °C 1028.7 hPa NNW 3.2 km/h 14.5 km/h 65% 0 mm
20:39 -2.7 °C -8.4 °C 1028.7 hPa NNW 9.7 km/h 11.3 km/h 65% 0 mm
20:44 -2.8 °C -8.4 °C 1029 hPa NNW 4.8 km/h 12.9 km/h 65% 0 mm
20:49 -2.8 °C -8.5 °C 1029 hPa NW 6.4 km/h 9.7 km/h 65% 0 mm
20:54 -2.9 °C -8.4 °C 1029 hPa NNW 4.8 km/h 12.9 km/h 66% 0 mm
20:59 -3 °C -8.4 °C 1028.7 hPa NNW 6.4 km/h 16.1 km/h 66% 0 mm
21:04 -3.1 °C -8.5 °C 1028.7 hPa NNW 4.8 km/h 16.1 km/h 66% 0 mm
21:09 -3.1 °C -8.5 °C 1028.7 hPa NNW 4.8 km/h 16.1 km/h 66% 0 mm
21:14 -3.1 °C -8.6 °C 1028.7 hPa NNW 4.8 km/h 16.1 km/h 66% 0 mm
21:19 -3.1 °C -8.3 °C 1028.7 hPa North 4.8 km/h 12.9 km/h 67% 0 mm
21:24 -3.1 °C -8.4 °C 1028.7 hPa North 6.4 km/h 14.5 km/h 67% 0 mm
21:29 -3.1 °C -8.4 °C 1029 hPa NNW 3.2 km/h 14.5 km/h 67% 0 mm
21:34 -3.3 °C -8.6 °C 1028.7 hPa NNW 6.4 km/h 9.7 km/h 67% 0 mm
21:39 -3.3 °C -8.4 °C 1028.7 hPa NNW 3.2 km/h 12.9 km/h 68% 0 mm
21:44 -3.4 °C -8.4 °C 1028.7 hPa NNW 4.8 km/h 9.7 km/h 68% 0 mm
21:49 -3.6 °C -8.4 °C 1028.7 hPa NNW 3.2 km/h 8 km/h 69% 0 mm
21:54 -3.6 °C -8.4 °C 1028.7 hPa NW 1.6 km/h 12.9 km/h 69% 0 mm
21:59 -3.6 °C -8.5 °C 1028.7 hPa NW 6.4 km/h 11.3 km/h 69% 0 mm
22:04 -3.6 °C -8.3 °C 1028.7 hPa NNW 4.8 km/h 12.9 km/h 70% 0 mm
22:09 -3.6 °C -8.3 °C 1028.7 hPa NNW 4.8 km/h 12.9 km/h 70% 0 mm
22:14 -3.7 °C -8.3 °C 1028.7 hPa NNW 4.8 km/h 9.7 km/h 70% 0 mm
22:19 -3.7 °C -8.4 °C 1028.7 hPa NNW 4.8 km/h 9.7 km/h 70% 0 mm
22:24 -3.8 °C -8.5 °C 1028.7 hPa NNW 3.2 km/h 8 km/h 70% 0 mm
22:29 -3.9 °C -8.4 °C 1028.3 hPa NNW 4.8 km/h 9.7 km/h 71% 0 mm
22:34 -3.8 °C -8.3 °C 1028.3 hPa NW 3.2 km/h 9.7 km/h 71% 0 mm
22:39 -3.9 °C -8.4 °C 1028.3 hPa NW 4.8 km/h 9.7 km/h 71% 0 mm
22:44 -3.9 °C -8.4 °C 1028.3 hPa NNW 3.2 km/h 9.7 km/h 71% 0 mm
22:49 -4.1 °C -8.3 °C 1028.3 hPa NNW 3.2 km/h 9.7 km/h 72% 0 mm
22:54 -4.2 °C -8.4 °C 1028.3 hPa Calm   8 km/h 72% 0 mm
22:59 -4.3 °C -8.6 °C 1028 hPa NW 3.2 km/h 8 km/h 72% 0 mm
23:04 -4.3 °C -8.6 °C 1028 hPa NW 1.6 km/h 8 km/h 72% 0 mm
23:09 -4.2 °C -8.5 °C 1028 hPa NW 1.6 km/h 4.8 km/h 72% 0 mm
23:14 -4.3 °C -8.6 °C 1028 hPa NW 3.2 km/h 6.4 km/h 72% 0 mm
23:19 -4.3 °C -8.6 °C 1028 hPa WNW 3.2 km/h 8 km/h 72% 0 mm
23:24 -4.4 °C -8.7 °C 1028 hPa Calm   4.8 km/h 72% 0 mm
23:29 -4.6 °C -8.8 °C 1028 hPa Calm   4.8 km/h 72% 0 mm
23:35 -4.6 °C -8.7 °C 1027.7 hPa Calm   4.8 km/h 73% 0 mm
23:44 -4.9 °C -9.1 °C 1027.7 hPa WNW 1.6 km/h 4.8 km/h 73% 0 mm
23:49 -5 °C -9.1 °C 1027.7 hPa Calm   4.8 km/h 73% 0 mm
23:54 -5.1 °C -9.2 °C 1027.7 hPa Calm   3.2 km/h 73% 0 mm
23:59 -5.1 °C -9.2 °C 1027.7 hPa Calm   4.8 km/h 73% 0 mm
Buffalo, New York, USA
Compliments of Weather Underground - 2.5 mb